METAR Data
IDs: Format: Raw Decoded Include TAF

Data at: 0932 UTC 20 Sep 2018

PAHP 200919Z AUTO 24012KT 5SM BR BKN005 BKN010 OVC020 11/10 A3006 RMK AO2 RAB0859E18 P0000
PAHP 200911Z AUTO 24013KT 5SM -RA BR SCT007 BKN013 OVC020 11/10 A3006 RMK AO2 RAB0859 P0000
PAHP 200856Z AUTO 23012KT 6SM BR BKN007 OVC013 11/10 A3006 RMK AO2 RAE56 CIG 004V009 SLP217 P0000 60001 T01060100 401110094 56007
PAHP 200852Z AUTO 23012KT 6SM -RA BR BKN007 OVC013 11/10 A3006 RMK AO2 CIG 004V009 P0000 401110094
PAHP 200823Z AUTO 23013KT 4SM -RA BR SCT005 BKN013 OVC018 11/10 A3006 RMK AO2 P0000
PAHP 200756Z AUTO 23012KT 4SM -RA BR BKN005 BKN010 OVC018 11/10 A3007 RMK AO2 CIG 003V008 SLP221 P0000 T01060100
PAHP 200736Z AUTO 23014KT 8SM -RA BKN005 OVC012 11/10 A3007 RMK AO2 CIG 004V008 P0000
PAHP 200656Z AUTO 22014KT 6SM -RA BR OVC005 11/10 A3008 RMK AO2 RAB08 SLP224 P0001 T01060100
PAHP 200652Z AUTO 22013KT 5SM -RA BR OVC005 11/10 A3008 RMK AO2 RAB08 P0001
PAHP 200533Z AUTO 22016KT 8SM -RA BKN007 BKN014 OVC022 11/09 A3009 RMK AO2 P0000
PAHP 200527Z AUTO 22016G19KT 4SM -RA BR SCT007 BKN016 OVC022 11/10 A3009 RMK AO2 P0000
PAHP 200511Z AUTO 21014KT 6SM -RA BR BKN007 BKN010 OVC017 10/09 A3010 RMK AO2 CIG 005V010 P0000
PAHP 200504Z AUTO 22015KT 5SM -RA BR FEW005 BKN010 OVC017 10/09 A3010 RMK AO2 CIG 007V012 P0000
PAHP 200456Z AUTO 22016KT 5SM -RA BR BKN005 BKN010 OVC017 10/09 A3010 RMK AO2 SLP231 P0000 T01000094
PAHP 200405Z AUTO 21015KT 2 1/2SM -RA BR SCT005 BKN010 OVC026 10/09 A3011 RMK AO2 CIG 010V013 P0000
PAHP 200353Z AUTO 22014KT 2 1/2SM BR BKN007 BKN018 OVC024 10/09 A3012 RMK AO2 RAE51 CIG 004V009 P0000
PAHP 200345Z AUTO 22017KT 4SM -RA BR SCT007 BKN013 OVC026 10/09 A3012 RMK AO2 P0000
PAHP 200338Z AUTO 23017KT 5SM -RA BR FEW010 SCT018 OVC026 10/09 A3012 RMK AO2 P0000
PAHP 200317Z AUTO 22014KT 2SM -RA BR FEW010 OVC026 11/09 A3013 RMK AO2 P0000
PAHP 200233Z AUTO 23017KT 6SM -RA BR FEW010 OVC028 11/09 A3014 RMK AO2 P0001
PAHP 200219Z AUTO 24018KT 5SM -RA BR BKN010 OVC025 11/09 A3014 RMK AO2 CIG 007V013 P0001
PAHP 200156Z AUTO 22016KT 6SM -RA BR BKN006 OVC014 11/09 A3014 RMK AO2 CIG 005V009 SLP245 P0000 T01060094
PAHP 200151Z AUTO 22016G22KT 8SM -RA BKN006 BKN010 OVC019 11/09 A3014 RMK AO2 CIG 005V008 P0000
PAHP 200133Z AUTO 22019KT 3SM -RA BR BKN010 BKN015 OVC021 11/09 A3014 RMK AO2 CIG 005V011 P0000
PAHP 200127Z AUTO 22015KT 1 3/4SM -RA BR OVC010 11/09 A3015 RMK AO2 VIS 1 1/4V2 1/2 CIG 005V014 P0000
PAHP 200120Z AUTO 23014KT 3SM -RA BR BKN010 OVC015 11/09 A3015 RMK AO2 CIG 005V011 P0000
PAHP 200101Z AUTO 22016KT 4SM -RA BR BKN009 OVC015 11/09 A3015 RMK AO2 CIG 008V012 P0000
PAHP 200049Z AUTO 21015KT 2 1/2SM -RA BR SCT009 BKN013 OVC028 11/09 A3015 RMK AO2 P0001
PAHP 200026Z AUTO 22016KT 6SM -RA BR SCT009 BKN028 OVC034 11/09 A3016 RMK AO2 P0001
PAHP 200011Z AUTO 22016KT 6SM -RA BR BKN009 BKN014 OVC032 11/09 A3017 RMK AO2 P0000
PAHP 192356Z AUTO 23015KT 7SM -RA SCT009 BKN027 OVC034 11/09 A3017 RMK AO2 SLP256 P0001 60005 T01060089 10111 20106 58010
PAHP 192343Z AUTO 23018KT 7SM -RA FEW009 BKN027 OVC034 11/09 A3018 RMK AO2 P0001
PAHP 192334Z AUTO 23015KT 10SM -RA FEW009 SCT013 OVC034 11/09 A3018 RMK AO2 P0001
PAHP 192325Z AUTO 23016KT 8SM -RA SCT009 BKN013 OVC034 11/09 A3018 RMK AO2 P0001
PAHP 192317Z AUTO 23016KT 6SM -RA BR SCT011 BKN016 OVC034 11/09 A3018 RMK AO2 P0001
PAHP 192256Z AUTO 23016KT 5SM -RA BR BKN010 BKN013 OVC022 11/09 A3019 RMK AO2 SLP261 P0002 T01060089
PAHP 192247Z AUTO 24015KT 5SM -RA BR BKN010 BKN019 OVC024 11/09 A3019 RMK AO2 CIG 008V013 P0001
PAHP 192215Z AUTO 24017KT 6SM -RA BR SCT010 BKN017 OVC030 11/09 A3019 RMK AO2 P0000
PAHP 192156Z AUTO 23014KT 5SM -RA BR BKN010 BKN017 OVC039 11/09 A3020 RMK AO2 SLP263 P0001 T01110094
PAHP 192109Z AUTO 25015KT 7SM -RA BKN012 OVC018 11/09 A3020 RMK AO2 P0000
PAHP 192056Z AUTO 25016KT 6SM -RA BR SCT010 BKN016 OVC025 11/09 A3020 RMK AO2 SLP266 P0001 60001 T01060094 58004
PAHP 192018Z AUTO 25013KT 8SM -RA BKN012 BKN023 OVC065 11/09 A3021 RMK AO2 P0001
PAHP 191947Z AUTO 25013KT 10SM -RA SCT012 OVC049 11/09 A3021 RMK AO2 RAB26 P0000
PAHP 191756Z AUTO 24014KT 10SM SCT026 OVC032 11/09 A3022 RMK AO2 SLP270 60001 T01060089 10111 20100 58004
PAHP 191705Z AUTO 25015KT 10SM OVC007 11/08 A3022 RMK AO2 CIG 004V011
PAHP 191656Z AUTO 25014KT 10SM BKN005 OVC012 11/09 A3022 RMK AO2 RAB13E52 CIG 004V010 SLP271 P0001 T01060089
PAHP 191645Z AUTO 25018G22KT 4SM -RA BR BKN005 BKN014 OVC019 10/09 A3022 RMK AO2 RAB13 CIG 004V009 P0001
PAHP 191633Z AUTO 25017KT 2 1/2SM -RA BR SCT005 OVC016 10/09 A3022 RMK AO2 RAB13 P0001
PAHP 191539Z AUTO 25018KT 10SM BKN017 OVC048 11/08 A3023 RMK AO2
PAHP 191356Z AUTO 25015KT 10SM FEW015 OVC048 11/08 A3024 RMK AO2 SLP278 T01060078
PAHP 191323Z AUTO 25014KT 10SM FEW016 OVC048 11/08 A3024 RMK AO2
PAHP 191256Z AUTO 25014KT 10SM BKN014 OVC048 11/08 A3024 RMK AO2 SLP279 T01060083
PAHP 191244Z AUTO 25014KT 10SM BKN014 OVC048 11/08 A3024 RMK AO2
PAHP 191156Z AUTO 25015KT 10SM FEW014 BKN027 OVC042 11/08 A3025 RMK AO2 SLP281 60001 70002 T01060083 10111 20094 58003
PAHP 191056Z AUTO 25015KT 10SM BKN015 BKN028 OVC040 11/08 A3025 RMK AO2 RAE47 SLP283 P0000 T01060083
PAHP 191027Z AUTO 25012KT 10SM FEW018 SCT023 OVC040 10/08 A3025 RMK AO2 RAE21 P0000
PAHP 190915Z AUTO 25015G22KT 10SM SCT013 BKN050 11/07 A3026 RMK AO2
PAHP 190907Z AUTO 25016KT 10SM BKN013 BKN025 BKN029 11/08 A3025 RMK AO2
PAHP 190856Z AUTO 24016KT 10SM BKN015 BKN025 OVC029 11/08 A3026 RMK AO2 RAE43 SLP285 P0000 60001 T01060083 401110094 58007
PAHP 190810Z AUTO 25009KT 9SM -RA FEW009 BKN024 OVC031 09/08 A3027 RMK AO2 P0000
PAHP 190756Z AUTO 26011KT 6SM -RA BR SCT011 BKN020 OVC030 09/08 A3027 RMK AO2 RAB05 SLP290 P0001 T00940083
PAHP 190732Z AUTO 26016KT 7SM -RA BKN013 BKN017 OVC041 09/08 A3028 RMK AO2 RAB05 P0000
PAHP 190656Z AUTO 24016KT 9SM SCT011 BKN043 OVC055 10/08 A3028 RMK AO2 SLP291 T01000083
PAHP 190649Z AUTO 24016KT 9SM SCT011 BKN016 OVC055 10/08 A3028 RMK AO2
PAHP 190556Z AUTO 24014KT 10SM FEW018 BKN032 OVC055 11/08 A3028 RMK AO2 SLP292 60000 T01060078 10111 20100 58002
PAHP 190503Z AUTO 25017KT 10SM FEW016 BKN030 OVC047 11/08 A3028 RMK AO2
PAHP 190456Z AUTO 26016KT 10SM SCT017 BKN021 OVC047 11/08 A3029 RMK AO2 SLP294 T01110078
PAHP 190448Z AUTO 25015KT 10SM SCT017 BKN034 OVC047 11/08 A3029 RMK AO2
PAHP 190356Z AUTO 26015KT 10SM SCT015 BKN029 OVC049 11/08 A3029 RMK AO2 SLP294 T01110078
PAHP 190256Z AUTO 26015KT 10SM OVC013 11/08 A3028 RMK AO2 SLP294 60000 T01110083 56003
PAHP 190156Z AUTO 27007KT 10SM BKN013 BKN020 OVC030 10/09 A3029 RMK AO2 RAB24E44 SLP295 P0000 T01000089
PAHP 190133Z AUTO 31006KT 10SM -RA BKN013 BKN018 OVC032 10/09 A3029 RMK AO2 RAB24 P0000
PAHP 190124Z AUTO 31008KT 9SM -RA SCT013 BKN018 OVC030 10/08 A3029 RMK AO2 RAB24 P0000
PAHP 190056Z AUTO 31012KT 10SM FEW012 OVC030 11/08 A3029 RMK AO2 SLP295 T01060083
PAHP 190037Z AUTO 27014KT 10SM FEW012 OVC032 11/08 A3029 RMK AO2
PAHP 182356Z AUTO 27012KT 10SM SCT014 BKN023 OVC039 11/09 A3029 RMK AO2 SLP297 60001 T01110089 10111 20100 57001
PAHP 182354Z AUTO 27013KT 10SM SCT014 BKN023 OVC039 11/09 A3029 RMK AO2
PAHP 182256Z AUTO 26013KT 10SM SCT014 SCT019 OVC041 11/08 A3030 RMK AO2 SLP298 T01110083
PAHP 182244Z AUTO 27014KT 10SM SCT014 OVC041 11/08 A3030 RMK AO2
PAHP 182222Z AUTO 26014KT 10SM BKN014 BKN024 OVC039 11/08 A3030 RMK AO2
PAHP 182211Z AUTO 27014KT 10SM FEW012 SCT019 OVC038 11/09 A3030 RMK AO2
PAHP 182156Z AUTO 27014KT 10SM SCT012 BKN019 OVC043 11/08 A3030 RMK AO2 SLP298 T01110083